createdAt,value
2016-10-25T00:00:45.231Z,99.51
2016-10-25T00:01:45.202Z,99.6
2016-10-25T00:02:45.174Z,99.8
2016-10-25T00:03:45.149Z,99.6
2016-10-25T00:04:45.119Z,99.6
2016-10-25T00:05:45.092Z,99.04
2016-10-25T00:06:45.067Z,99.7
2016-10-25T00:07:45.041Z,99.8
2016-10-25T00:08:45.012Z,99.8
2016-10-25T00:09:45.022Z,99.41
2016-10-25T00:10:44.962Z,99.89
2016-10-25T00:11:44.933Z,99.41
2016-10-25T00:12:44.905Z,99.41
2016-10-25T00:13:44.883Z,99.41
2016-10-25T00:14:44.854Z,99.8
2016-10-25T00:15:44.827Z,99.8
2016-10-25T00:16:44.802Z,99.8
2016-10-25T00:17:44.775Z,99.8
2016-10-25T00:18:44.749Z,99.8
2016-10-25T00:19:44.724Z,99.99
2016-10-25T00:20:44.696Z,99.8
2016-10-25T00:21:44.673Z,99.04
2016-10-25T00:22:44.644Z,99.99
2016-10-25T00:23:44.618Z,99.46
2016-10-25T00:24:44.590Z,99.08
2016-10-25T00:25:44.565Z,99.51
2016-10-25T00:26:44.537Z,99.56
2016-10-25T00:27:44.509Z,98.75
2016-10-25T00:28:44.484Z,98.8
2016-10-25T00:29:44.458Z,98.61
2016-10-25T00:30:44.431Z,99.37
2016-10-25T00:31:44.407Z,99.66
2016-10-25T00:32:44.377Z,99.46
2016-10-25T00:33:44.353Z,99.08
2016-10-25T00:34:44.328Z,99.46
2016-10-25T00:35:44.304Z,99.66
2016-10-25T00:36:44.276Z,99.46
2016-10-25T00:37:44.250Z,99.37
2016-10-25T00:38:44.220Z,99.46
2016-10-25T00:39:44.194Z,99.37
2016-10-25T00:40:44.170Z,99.37
2016-10-25T00:41:44.146Z,99.37
2016-10-25T00:42:44.116Z,99.08
2016-10-25T00:43:44.090Z,99.37
2016-10-25T00:44:44.066Z,99.08
2016-10-25T00:45:44.038Z,99.18
2016-10-25T00:46:44.011Z,98.99
2016-10-25T00:47:43.986Z,99.46
2016-10-25T00:48:43.963Z,99.66
2016-10-25T00:49:43.933Z,99.27
2016-10-25T00:50:43.944Z,99.18
2016-10-25T00:51:43.882Z,99.27
2016-10-25T00:52:43.854Z,99.27
2016-10-25T00:53:43.830Z,99.46
2016-10-25T00:54:43.800Z,99.37
2016-10-25T00:55:43.777Z,99.46
2016-10-25T00:56:43.748Z,99.37
2016-10-25T00:57:43.722Z,99.46
2016-10-25T00:58:43.696Z,99.37
2016-10-25T00:59:43.672Z,99.27
2016-10-25T01:00:43.645Z,99.27
2016-10-25T01:01:43.618Z,99.46
2016-10-25T01:02:43.592Z,99.46
2016-10-25T01:03:43.567Z,99.46
2016-10-25T01:04:43.539Z,99.37
2016-10-25T01:05:43.515Z,99.27
2016-10-25T01:06:43.488Z,99.66
2016-10-25T01:07:43.461Z,99.37
2016-10-25T01:08:43.434Z,99.37
2016-10-25T01:09:43.406Z,99.46
2016-10-25T01:10:43.383Z,99.51
2016-10-25T01:11:43.358Z,99.46
2016-10-25T01:12:43.330Z,99.27
2016-10-25T01:13:43.307Z,99.41
2016-10-25T01:14:43.276Z,99.56
2016-10-25T01:15:43.252Z,99.85
2016-10-25T01:16:43.226Z,99.41
2016-10-25T01:17:43.199Z,99.6
2016-10-25T01:18:43.175Z,99.51
2016-10-25T01:19:43.143Z,99.89
2016-10-25T01:20:43.168Z,99.99
2016-10-25T01:21:43.098Z,99.6
2016-10-25T01:22:43.070Z,99.51
2016-10-25T01:23:43.043Z,99.32
2016-10-25T01:24:43.014Z,99.99
2016-10-25T01:25:42.986Z,99.8
2016-10-25T01:26:42.989Z,99.99
2016-10-25T01:27:42.935Z,99.7
2016-10-25T01:28:42.909Z,99.89
2016-10-25T01:29:42.882Z,99.8
2016-10-25T01:30:42.855Z,99.8
2016-10-25T01:31:42.826Z,99.99
2016-10-25T01:32:42.802Z,99.99
2016-10-25T01:33:42.775Z,99.99
2016-10-25T01:34:42.749Z,99.7
2016-10-25T01:35:42.723Z,99.99
2016-10-25T01:36:42.697Z,99.99
2016-10-25T01:37:42.673Z,99.99
2016-10-25T01:38:42.940Z,99.99
2016-10-25T01:39:42.617Z,99.99
2016-10-25T01:40:42.592Z,99.99
2016-10-25T01:41:42.563Z,99.99
2016-10-25T01:42:42.538Z,99.99
2016-10-25T01:43:42.511Z,99.99
2016-10-25T01:44:42.487Z,99.99
2016-10-25T01:45:42.458Z,99.99
2016-10-25T01:46:42.428Z,99.99
2016-10-25T01:47:42.401Z,99.99
2016-10-25T01:48:42.376Z,99.99
2016-10-25T01:49:42.351Z,99.99
2016-10-25T01:50:42.325Z,99.99
2016-10-25T01:51:42.300Z,99.99
2016-10-25T01:52:42.271Z,99.99
2016-10-25T01:53:42.244Z,99.99
2016-10-25T01:54:42.217Z,99.99
2016-10-25T01:55:42.191Z,99.99
2016-10-25T01:56:42.168Z,99.99
2016-10-25T01:57:42.137Z,99.99
2016-10-25T01:58:42.113Z,99.99
2016-10-25T01:59:42.084Z,99.99
2016-10-25T02:00:42.059Z,99.99
2016-10-25T02:01:42.035Z,99.99
2016-10-25T02:02:42.003Z,99.99
2016-10-25T02:03:41.978Z,99.99
2016-10-25T02:04:41.951Z,99.99
2016-10-25T02:05:41.923Z,99.99
2016-10-25T02:06:41.899Z,99.99
2016-10-25T02:07:41.871Z,99.99
2016-10-25T02:08:41.848Z,99.99
2016-10-25T02:09:41.818Z,99.99
2016-10-25T02:10:41.796Z,99.99
2016-10-25T02:11:41.773Z,99.99
2016-10-25T02:12:41.745Z,99.99
2016-10-25T02:13:41.718Z,99.99
2016-10-25T02:14:41.692Z,99.99
2016-10-25T02:15:41.663Z,99.99
2016-10-25T02:16:41.633Z,99.99
2016-10-25T02:17:41.610Z,99.99
2016-10-25T02:18:41.582Z,99.99
2016-10-25T02:19:41.555Z,99.99
2016-10-25T02:20:41.532Z,99.99
2016-10-25T02:21:41.500Z,99.99
2016-10-25T02:22:41.474Z,99.99
2016-10-25T02:23:41.451Z,99.99
2016-10-25T02:24:41.424Z,99.99
2016-10-25T02:25:41.394Z,99.99
2016-10-25T02:26:41.370Z,99.99
2016-10-25T02:27:41.342Z,99.99
2016-10-25T02:28:41.317Z,99.99
2016-10-25T02:29:41.292Z,99.99
2016-10-25T02:30:41.265Z,99.99
2016-10-25T02:31:41.239Z,99.99
2016-10-25T02:32:41.215Z,99.99
2016-10-25T02:33:41.185Z,99.99
2016-10-25T02:34:41.162Z,99.99
2016-10-25T02:35:41.132Z,99.99
2016-10-25T02:36:41.107Z,99.99
2016-10-25T02:37:41.085Z,99.99
2016-10-25T02:38:41.054Z,99.99
2016-10-25T02:39:41.028Z,99.99
2016-10-25T02:40:41.000Z,99.89
2016-10-25T02:41:40.978Z,99.99
2016-10-25T02:42:40.948Z,99.99
2016-10-25T02:43:40.922Z,99.99
2016-10-25T02:44:40.897Z,99.99
2016-10-25T02:45:40.871Z,99.89
2016-10-25T02:46:40.846Z,99.99
2016-10-25T02:47:40.815Z,99.99
2016-10-25T02:48:40.790Z,99.99
2016-10-25T02:49:40.776Z,99.99
2016-10-25T02:50:40.738Z,99.99
2016-10-25T02:51:40.710Z,99.99
2016-10-25T02:52:40.683Z,99.99
2016-10-25T02:53:40.658Z,99.99
2016-10-25T02:54:40.632Z,99.99
2016-10-25T02:55:40.606Z,99.99
2016-10-25T02:56:40.579Z,99.99
2016-10-25T02:57:40.555Z,99.99
2016-10-25T02:58:40.528Z,99.99
2016-10-25T02:59:40.497Z,99.99
2016-10-25T03:00:40.476Z,99.99
2016-10-25T03:01:40.450Z,99.99
2016-10-25T03:02:40.418Z,99.99
2016-10-25T03:03:40.394Z,99.99
2016-10-25T03:04:40.369Z,99.99
2016-10-25T03:05:40.342Z,99.99
2016-10-25T03:06:40.314Z,99.99
2016-10-25T03:07:40.288Z,99.99
2016-10-25T03:08:40.263Z,99.99
2016-10-25T03:09:40.236Z,99.99
2016-10-25T03:10:40.208Z,99.99
2016-10-25T03:11:40.181Z,99.99
2016-10-25T03:12:40.158Z,99.99
2016-10-25T03:13:40.130Z,99.99
2016-10-25T03:14:40.104Z,99.99
2016-10-25T03:15:40.075Z,99.99
2016-10-25T03:16:40.047Z,99.99
2016-10-25T03:17:40.024Z,99.99
2016-10-25T03:18:40.003Z,99.99
2016-10-25T03:19:39.971Z,99.99
2016-10-25T03:20:39.944Z,99.99
2016-10-25T03:21:39.917Z,99.99
2016-10-25T03:22:39.890Z,99.99
2016-10-25T03:23:39.864Z,99.99
2016-10-25T03:24:39.837Z,99.99
2016-10-25T03:25:39.811Z,99.99
2016-10-25T03:26:39.820Z,99.99
2016-10-25T03:27:39.758Z,99.99
2016-10-25T03:28:39.732Z,99.99
2016-10-25T03:29:39.707Z,99.99
2016-10-25T03:30:39.680Z,99.99
2016-10-25T03:31:39.651Z,99.99
2016-10-25T03:32:39.627Z,99.99
2016-10-25T03:33:39.601Z,99.99
2016-10-25T03:34:39.581Z,99.99
2016-10-25T03:35:39.546Z,99.99
2016-10-25T03:36:39.518Z,99.99
2016-10-25T03:37:39.495Z,99.99
2016-10-25T03:38:39.468Z,99.99
2016-10-25T03:39:39.440Z,99.99
2016-10-25T03:40:39.417Z,99.99
2016-10-25T03:41:39.396Z,99.99
2016-10-25T03:42:39.360Z,99.99
2016-10-25T03:43:39.335Z,99.99
2016-10-25T03:44:39.309Z,99.99
2016-10-25T03:45:39.283Z,99.99
2016-10-25T03:46:39.257Z,99.99
2016-10-25T03:47:39.231Z,99.99
2016-10-25T03:48:39.203Z,99.99
2016-10-25T03:49:39.178Z,99.99
2016-10-25T03:50:39.153Z,99.99
2016-10-25T03:51:39.125Z,99.99
2016-10-25T03:52:39.099Z,99.99
2016-10-25T03:53:39.076Z,99.99
2016-10-25T03:54:39.047Z,99.99
2016-10-25T03:55:39.021Z,99.99
2016-10-25T03:56:38.993Z,99.99
2016-10-25T03:57:38.966Z,99.99
2016-10-25T03:58:38.940Z,99.99
2016-10-25T03:59:38.916Z,99.99
2016-10-25T04:00:38.888Z,99.99
2016-10-25T04:01:38.862Z,99.99
2016-10-25T04:02:38.834Z,99.99
2016-10-25T04:03:38.807Z,99.99
2016-10-25T04:04:38.782Z,99.99
2016-10-25T04:05:38.761Z,99.99
2016-10-25T04:06:38.728Z,99.99
2016-10-25T04:07:38.702Z,99.99
2016-10-25T04:08:38.677Z,99.99
2016-10-25T04:09:38.655Z,99.99
2016-10-25T04:10:38.626Z,99.99
2016-10-25T04:11:38.598Z,99.99
2016-10-25T04:12:38.573Z,99.99
2016-10-25T04:13:38.545Z,99.99
2016-10-25T04:14:38.521Z,99.99
2016-10-25T04:15:38.513Z,99.99
2016-10-25T04:16:38.468Z,99.99
2016-10-25T04:17:38.440Z,99.99
2016-10-25T04:18:38.415Z,99.99
2016-10-25T04:19:38.388Z,99.99
2016-10-25T04:20:38.368Z,99.99
2016-10-25T04:21:38.339Z,99.99
2016-10-25T04:22:38.307Z,99.99
2016-10-25T04:23:38.284Z,99.99
2016-10-25T04:24:38.255Z,99.99
2016-10-25T04:25:38.231Z,99.99
2016-10-25T04:26:38.205Z,99.99
2016-10-25T04:27:38.176Z,99.99
2016-10-25T04:28:38.152Z,99.99
2016-10-25T04:29:38.123Z,99.99
2016-10-25T04:30:38.099Z,99.99
2016-10-25T04:31:38.075Z,99.99
2016-10-25T04:32:38.048Z,99.99
2016-10-25T04:33:38.021Z,99.99
2016-10-25T04:34:37.994Z,99.99
2016-10-25T04:35:37.967Z,99.99
2016-10-25T04:36:37.943Z,99.99
2016-10-25T04:37:37.919Z,99.99
2016-10-25T04:38:37.891Z,99.99
2016-10-25T04:39:37.865Z,99.99
2016-10-25T04:40:37.840Z,99.99
2016-10-25T04:41:37.812Z,99.99
2016-10-25T04:42:37.784Z,99.99
2016-10-25T04:43:37.766Z,99.99
2016-10-25T04:44:37.732Z,99.99
2016-10-25T04:45:37.704Z,99.99
2016-10-25T04:46:37.681Z,99.99
2016-10-25T04:47:37.654Z,99.99
2016-10-25T04:48:37.625Z,99.99
2016-10-25T04:49:37.599Z,99.99
2016-10-25T04:50:37.573Z,99.99
2016-10-25T04:51:37.548Z,99.99
2016-10-25T04:52:37.520Z,99.99
2016-10-25T04:53:37.495Z,99.99
2016-10-25T04:54:37.484Z,99.99
2016-10-25T04:55:37.440Z,99.99
2016-10-25T04:56:37.418Z,99.99
2016-10-25T04:57:37.395Z,99.99
2016-10-25T04:58:37.366Z,99.99
2016-10-25T04:59:37.335Z,99.99
2016-10-25T05:00:37.310Z,99.99
2016-10-25T05:01:37.284Z,99.99
2016-10-25T05:02:37.258Z,99.99
2016-10-25T05:03:37.232Z,99.99
2016-10-25T05:04:37.204Z,99.99
2016-10-25T05:05:37.179Z,99.99
2016-10-25T05:06:37.149Z,99.99
2016-10-25T05:07:37.131Z,99.99
2016-10-25T05:08:37.097Z,99.99
2016-10-25T05:09:37.073Z,99.99
2016-10-25T05:10:37.045Z,99.99
2016-10-25T05:11:37.018Z,99.99
2016-10-25T05:12:36.991Z,99.99
2016-10-25T05:13:36.964Z,99.99
2016-10-25T05:14:36.940Z,99.99
2016-10-25T05:15:36.913Z,99.99
2016-10-25T05:16:36.886Z,99.99
2016-10-25T05:17:36.861Z,99.99
2016-10-25T05:18:36.832Z,99.99
2016-10-25T05:19:36.807Z,99.99
2016-10-25T05:20:36.781Z,99.99
2016-10-25T05:21:36.755Z,99.99
2016-10-25T05:22:36.733Z,99.99
2016-10-25T05:23:36.700Z,99.99
2016-10-25T05:24:36.676Z,99.99
2016-10-25T05:25:36.648Z,99.99
2016-10-25T05:26:36.620Z,99.99
2016-10-25T05:27:36.590Z,99.99
2016-10-25T05:28:36.568Z,99.99
2016-10-25T05:29:36.538Z,99.99
2016-10-25T05:30:36.516Z,99.99
2016-10-25T05:31:36.487Z,99.99
2016-10-25T05:32:36.456Z,99.99
2016-10-25T05:33:36.429Z,99.99
2016-10-25T05:34:36.413Z,99.99
2016-10-25T05:35:36.379Z,99.99
2016-10-25T05:36:36.349Z,99.99
2016-10-25T05:37:36.325Z,99.99
2016-10-25T05:38:36.300Z,99.99
2016-10-25T05:39:36.272Z,99.99
2016-10-25T05:40:36.243Z,99.99
2016-10-25T05:41:36.220Z,99.99
2016-10-25T05:42:36.192Z,99.99
2016-10-25T05:43:36.166Z,99.99
2016-10-25T05:44:36.142Z,99.99
2016-10-25T05:45:36.414Z,99.99
2016-10-25T05:46:36.086Z,99.99
2016-10-25T05:47:36.056Z,99.99
2016-10-25T05:48:36.029Z,99.99
2016-10-25T05:49:36.006Z,99.99
2016-10-25T05:50:35.992Z,99.99
2016-10-25T05:51:35.952Z,99.99
2016-10-25T05:52:35.923Z,99.99
2016-10-25T05:53:35.896Z,99.99
2016-10-25T05:54:35.878Z,99.99
2016-10-25T05:55:35.843Z,99.99
2016-10-25T05:56:35.815Z,99.99
2016-10-25T05:57:35.788Z,99.99
2016-10-25T05:58:35.761Z,99.99
2016-10-25T05:59:35.734Z,99.99
2016-10-25T06:00:35.708Z,99.99
2016-10-25T06:01:35.680Z,99.99
2016-10-25T06:02:35.660Z,99.99
2016-10-25T06:03:35.627Z,99.99
2016-10-25T06:04:35.600Z,99.99
2016-10-25T06:05:35.575Z,99.99
2016-10-25T06:06:35.555Z,99.99
2016-10-25T06:07:35.521Z,99.99
2016-10-25T06:08:35.491Z,99.99
2016-10-25T06:09:35.465Z,99.99
2016-10-25T06:10:35.438Z,99.99
2016-10-25T06:11:35.412Z,99.99
2016-10-25T06:12:35.385Z,99.99
2016-10-25T06:13:35.358Z,99.99
2016-10-25T06:14:35.331Z,99.99
2016-10-25T06:15:35.304Z,99.99
2016-10-25T06:16:35.278Z,99.99
2016-10-25T06:17:35.248Z,99.99
2016-10-25T06:18:35.229Z,99.99
2016-10-25T06:19:35.204Z,99.99
2016-10-25T06:20:35.167Z,99.99
2016-10-25T06:21:35.140Z,99.99
2016-10-25T06:22:35.115Z,99.99
2016-10-25T06:23:35.085Z,99.99
2016-10-25T06:24:35.061Z,99.99
2016-10-25T06:25:35.033Z,99.99
2016-10-25T06:26:35.008Z,99.99
2016-10-25T06:27:34.980Z,99.99
2016-10-25T06:28:34.972Z,99.99
2016-10-25T06:29:34.925Z,99.99
2016-10-25T06:30:34.899Z,99.99
2016-10-25T06:31:34.876Z,99.99
2016-10-25T06:32:34.845Z,99.99
2016-10-25T06:33:34.819Z,99.99
2016-10-25T06:34:34.794Z,99.99
2016-10-25T06:35:34.764Z,99.99
2016-10-25T06:36:34.737Z,99.99
2016-10-25T06:37:34.708Z,99.99
2016-10-25T06:38:34.681Z,99.99
2016-10-25T06:39:34.654Z,99.99
2016-10-25T06:40:34.631Z,99.99
2016-10-25T06:41:34.604Z,99.99
2016-10-25T06:42:34.578Z,99.99
2016-10-25T06:43:34.548Z,99.99
2016-10-25T06:44:34.526Z,99.99
2016-10-25T06:45:34.497Z,99.99
2016-10-25T06:46:34.467Z,99.99
2016-10-25T06:47:34.776Z,99.99
2016-10-25T06:48:34.412Z,99.99
2016-10-25T06:49:34.419Z,99.99
2016-10-25T06:50:34.359Z,99.99
2016-10-25T06:51:34.331Z,99.99
2016-10-25T06:52:34.303Z,99.99
2016-10-25T06:53:34.278Z,99.99
2016-10-25T06:54:34.257Z,99.99
2016-10-25T06:55:34.226Z,99.99
2016-10-25T06:56:34.201Z,99.99
2016-10-25T06:57:34.171Z,99.99
2016-10-25T06:58:34.144Z,99.99
2016-10-25T06:59:34.115Z,99.99
2016-10-25T07:00:34.090Z,99.99
2016-10-25T07:01:34.065Z,99.99
2016-10-25T07:02:34.035Z,99.99
2016-10-25T07:03:34.010Z,99.99
2016-10-25T07:04:33.985Z,99.99
2016-10-25T07:05:33.957Z,99.99
2016-10-25T07:06:33.930Z,99.99
2016-10-25T07:07:33.904Z,99.99
2016-10-25T07:08:33.873Z,99.99
2016-10-25T07:09:33.849Z,99.99
2016-10-25T07:10:33.819Z,99.99
2016-10-25T07:11:33.792Z,99.99
2016-10-25T07:12:33.769Z,99.99
2016-10-25T07:13:33.740Z,99.99
2016-10-25T07:14:33.711Z,99.99
2016-10-25T07:15:33.686Z,99.99
2016-10-25T07:16:33.660Z,99.99
2016-10-25T07:17:33.630Z,99.99
2016-10-25T07:18:33.603Z,99.99
2016-10-25T07:19:33.584Z,99.99
2016-10-25T07:20:33.552Z,99.99
2016-10-25T07:21:33.525Z,99.99
2016-10-25T07:22:33.496Z,99.99
2016-10-25T07:23:33.472Z,99.99
2016-10-25T07:24:33.486Z,99.99
2016-10-25T07:25:33.417Z,99.99
2016-10-25T07:26:33.391Z,99.99
2016-10-25T07:27:33.365Z,99.99
2016-10-25T07:28:33.340Z,99.99
2016-10-25T07:29:33.311Z,99.99
2016-10-25T07:30:33.283Z,99.99
2016-10-25T07:31:33.259Z,99.99
2016-10-25T07:32:33.234Z,99.99
2016-10-25T07:33:33.204Z,99.99
2016-10-25T07:34:33.178Z,99.99
2016-10-25T07:35:33.152Z,99.99
2016-10-25T07:36:33.121Z,99.99
2016-10-25T07:37:33.093Z,99.99
2016-10-25T07:38:33.069Z,99.99
2016-10-25T07:39:33.043Z,99.99
2016-10-25T07:40:33.013Z,99.99
2016-10-25T07:41:32.987Z,99.99
2016-10-25T07:42:32.959Z,99.99
2016-10-25T07:43:32.933Z,99.99
2016-10-25T07:44:32.907Z,99.99
2016-10-25T07:45:32.883Z,99.99
2016-10-25T07:46:32.854Z,99.99
2016-10-25T07:47:32.831Z,99.99
2016-10-25T07:48:32.803Z,99.99
2016-10-25T07:49:32.775Z,99.99
2016-10-25T07:50:32.745Z,99.99
2016-10-25T07:51:32.733Z,99.99
2016-10-25T07:52:32.695Z,99.99
2016-10-25T07:53:32.666Z,99.99
2016-10-25T07:54:32.635Z,99.99
2016-10-25T07:55:32.611Z,99.99
2016-10-25T07:56:32.587Z,99.99
2016-10-25T07:57:32.559Z,99.99
2016-10-25T07:58:32.532Z,99.99
2016-10-25T07:59:32.507Z,99.99
2016-10-25T08:00:32.478Z,99.99
2016-10-25T08:01:32.449Z,99.99
2016-10-25T08:02:32.422Z,99.99
2016-10-25T08:03:32.395Z,99.99
2016-10-25T08:04:32.373Z,99.99
2016-10-25T08:05:32.344Z,99.99
2016-10-25T08:06:32.314Z,99.99
2016-10-25T08:07:32.290Z,99.99
2016-10-25T08:08:32.260Z,99.99
2016-10-25T08:09:32.233Z,99.99
2016-10-25T08:10:32.207Z,99.99
2016-10-25T08:11:32.179Z,99.99
2016-10-25T08:12:32.152Z,99.99
2016-10-25T08:13:32.128Z,99.99
2016-10-25T08:14:32.100Z,99.99
2016-10-25T08:15:32.071Z,99.99
2016-10-25T08:16:32.045Z,99.99
2016-10-25T08:17:32.022Z,99.99
2016-10-25T08:18:31.988Z,99.99
2016-10-25T08:19:31.963Z,99.99
2016-10-25T08:20:31.934Z,99.99
2016-10-25T08:21:31.911Z,99.99
2016-10-25T08:22:31.884Z,99.99
2016-10-25T08:23:31.854Z,99.99
2016-10-25T08:24:31.826Z,99.99
2016-10-25T08:25:31.802Z,99.99
2016-10-25T08:26:31.775Z,99.99
2016-10-25T08:27:31.748Z,99.99
2016-10-25T08:28:31.720Z,99.99
2016-10-25T08:29:31.722Z,99.99
2016-10-25T08:30:31.665Z,99.99
2016-10-25T08:31:31.641Z,99.99
2016-10-25T08:32:31.612Z,99.99
2016-10-25T08:33:31.582Z,99.99
2016-10-25T08:34:31.566Z,99.99
2016-10-25T08:35:31.528Z,99.99
2016-10-25T08:36:31.501Z,99.99
2016-10-25T08:37:31.474Z,99.99
2016-10-25T08:38:31.447Z,99.99
2016-10-25T08:39:31.419Z,99.99
2016-10-25T08:40:31.390Z,99.99
2016-10-25T08:41:31.368Z,99.99
2016-10-25T08:42:31.338Z,99.99
2016-10-25T08:43:31.312Z,99.99
2016-10-25T08:44:31.280Z,99.99
2016-10-25T08:45:31.288Z,99.99
2016-10-25T08:46:31.227Z,99.99
2016-10-25T08:47:31.198Z,99.99
2016-10-25T08:48:31.174Z,99.99
2016-10-25T08:49:31.147Z,99.99
2016-10-25T08:50:31.116Z,99.99
2016-10-25T08:51:31.090Z,99.99
2016-10-25T08:52:31.063Z,99.99
2016-10-25T08:53:31.034Z,99.99
2016-10-25T08:54:31.045Z,99.99
2016-10-25T08:55:30.986Z,99.99
2016-10-25T08:56:30.954Z,99.99
2016-10-25T08:57:30.926Z,99.99
2016-10-25T08:58:30.900Z,99.99
2016-10-25T08:59:30.877Z,99.99
2016-10-25T09:00:30.846Z,99.99
2016-10-25T09:01:30.819Z,99.99
2016-10-25T09:02:30.791Z,99.99
2016-10-25T09:03:30.767Z,99.99
2016-10-25T09:04:30.736Z,99.99
2016-10-25T09:05:30.711Z,99.99
2016-10-25T09:06:30.682Z,99.99
2016-10-25T09:07:30.654Z,99.99
2016-10-25T09:08:30.625Z,99.99
2016-10-25T09:09:30.606Z,99.99
2016-10-25T09:10:30.575Z,99.99
2016-10-25T09:11:30.546Z,99.99
2016-10-25T09:12:30.516Z,99.99
2016-10-25T09:13:30.489Z,99.99
2016-10-25T09:14:30.462Z,99.99
2016-10-25T09:15:30.438Z,99.99
2016-10-25T09:16:30.408Z,99.99
2016-10-25T09:17:30.381Z,99.99
2016-10-25T09:18:30.355Z,99.99
2016-10-25T09:19:30.327Z,99.99
2016-10-25T09:20:30.299Z,99.99
2016-10-25T09:21:30.275Z,99.99
2016-10-25T09:22:30.246Z,99.99
2016-10-25T09:23:30.217Z,99.99
2016-10-25T09:24:30.191Z,99.99
2016-10-25T09:25:30.165Z,99.99
2016-10-25T09:26:30.172Z,99.99
2016-10-25T09:27:30.111Z,99.99
2016-10-25T09:28:30.088Z,99.99
2016-10-25T09:29:30.057Z,99.99
2016-10-25T09:30:30.027Z,99.99
2016-10-25T09:31:29.999Z,99.99
2016-10-25T09:32:29.976Z,99.99
2016-10-25T09:33:29.945Z,99.99
2016-10-25T09:34:29.919Z,99.99
2016-10-25T09:35:29.891Z,99.99
2016-10-25T09:36:29.862Z,99.99
2016-10-25T09:37:29.836Z,99.99
2016-10-25T09:38:29.811Z,99.99
2016-10-25T09:39:29.788Z,99.99
2016-10-25T09:40:29.758Z,99.99
2016-10-25T09:41:29.731Z,99.99
2016-10-25T09:42:29.701Z,99.99
2016-10-25T09:43:29.678Z,99.99
2016-10-25T09:44:29.648Z,99.99
2016-10-25T09:45:29.620Z,99.99
2016-10-25T09:46:29.594Z,99.99
2016-10-25T09:47:29.566Z,99.99
2016-10-25T09:48:29.537Z,99.99
2016-10-25T09:49:29.511Z,99.99
2016-10-25T09:50:29.484Z,99.99
2016-10-25T09:51:29.459Z,99.99
2016-10-25T09:52:29.431Z,99.99
2016-10-25T09:53:29.407Z,99.99
2016-10-25T09:54:29.378Z,99.99
2016-10-25T09:55:29.350Z,99.99
2016-10-25T09:56:29.322Z,99.99
2016-10-25T09:57:29.309Z,99.99
2016-10-25T09:58:29.268Z,99.99
2016-10-25T09:59:29.244Z,99.99
2016-10-25T10:00:29.216Z,99.99
2016-10-25T10:01:29.191Z,99.99
2016-10-25T10:02:29.162Z,99.99
2016-10-25T10:03:29.137Z,99.99
2016-10-25T10:04:29.116Z,99.99
2016-10-25T10:05:29.085Z,99.99
2016-10-25T10:06:29.053Z,99.99
2016-10-25T10:07:29.028Z,99.99
2016-10-25T10:08:28.999Z,99.99
2016-10-25T10:09:28.974Z,99.99
2016-10-25T10:10:28.948Z,99.99
2016-10-25T10:11:28.918Z,99.99
2016-10-25T10:12:28.894Z,99.99
2016-10-25T10:13:28.863Z,99.99
2016-10-25T10:14:28.916Z,99.99
2016-10-25T10:15:28.811Z,99.99
2016-10-25T10:16:28.783Z,99.99
2016-10-25T10:17:28.758Z,99.99
2016-10-25T10:18:28.731Z,99.99
2016-10-25T10:19:28.736Z,99.99
2016-10-25T10:20:28.678Z,99.99
2016-10-25T10:21:28.650Z,99.99
2016-10-25T10:22:28.624Z,99.99
2016-10-25T10:23:28.601Z,99.99
2016-10-25T10:24:28.570Z,99.99
2016-10-25T10:25:28.542Z,99.99
2016-10-25T10:26:28.516Z,99.99
2016-10-25T10:27:28.493Z,99.99
2016-10-25T10:28:28.463Z,99.99
2016-10-25T10:29:28.438Z,99.99
2016-10-25T10:30:28.412Z,99.99
2016-10-25T10:31:28.383Z,99.99
2016-10-25T10:32:28.357Z,99.99
2016-10-25T10:33:28.330Z,99.99
2016-10-25T10:34:28.304Z,99.99
2016-10-25T10:35:28.276Z,99.99
2016-10-25T10:36:28.251Z,99.99
2016-10-25T10:37:28.221Z,99.99
2016-10-25T10:38:28.196Z,99.99
2016-10-25T10:39:28.173Z,99.99
2016-10-25T10:40:28.147Z,99.99
2016-10-25T10:41:28.118Z,99.99
2016-10-25T10:42:28.088Z,99.99
2016-10-25T10:43:28.065Z,99.99
2016-10-25T10:44:28.038Z,99.99
2016-10-25T10:45:28.013Z,99.99
2016-10-25T10:46:27.982Z,99.99
2016-10-25T10:47:27.960Z,99.99
2016-10-25T10:48:27.933Z,99.99
2016-10-25T10:49:27.903Z,99.99
2016-10-25T10:50:28.189Z,99.99
2016-10-25T10:51:27.873Z,99.99
2016-10-25T10:52:27.826Z,99.99
2016-10-25T10:53:27.799Z,99.99
2016-10-25T10:54:27.770Z,99.99
2016-10-25T10:55:27.745Z,99.99
2016-10-25T10:56:27.729Z,99.99
2016-10-25T10:57:27.691Z,99.99
2016-10-25T10:58:27.672Z,99.99
2016-10-25T10:59:27.639Z,99.99
2016-10-25T11:00:27.611Z,99.99
2016-10-25T11:01:27.587Z,99.99
2016-10-25T11:02:27.559Z,99.99
2016-10-25T11:03:27.833Z,99.99
2016-10-25T11:04:27.506Z,99.99
2016-10-25T11:05:27.479Z,99.99
2016-10-25T11:06:27.451Z,99.99
2016-10-25T11:07:27.428Z,99.99
2016-10-25T11:08:27.398Z,99.99
2016-10-25T11:09:27.374Z,99.99
2016-10-25T11:10:27.352Z,99.99
2016-10-25T11:11:27.322Z,99.99
2016-10-25T11:12:27.292Z,99.99
2016-10-25T11:13:27.274Z,99.99
2016-10-25T11:14:27.242Z,99.99
2016-10-25T11:15:27.216Z,99.99
2016-10-25T11:16:27.193Z,99.99
2016-10-25T11:17:27.164Z,99.99
2016-10-25T11:18:27.135Z,99.99
2016-10-25T11:19:27.119Z,99.99
2016-10-25T11:20:27.083Z,99.99
2016-10-25T11:21:27.056Z,99.99
2016-10-25T11:22:27.033Z,99.99
2016-10-25T11:23:27.003Z,99.99
2016-10-25T11:24:26.980Z,99.99
2016-10-25T11:25:26.955Z,99.99
2016-10-25T11:26:26.924Z,99.99
2016-10-25T11:27:26.900Z,99.99
2016-10-25T11:28:26.875Z,99.99
2016-10-25T11:29:26.850Z,99.99
2016-10-25T11:30:26.825Z,99.99
2016-10-25T11:31:26.806Z,99.99
2016-10-25T11:32:26.771Z,99.99
2016-10-25T11:33:26.784Z,99.99
2016-10-25T11:34:26.870Z,99.99
2016-10-25T11:35:26.695Z,99.99
2016-10-25T11:36:26.671Z,99.99
2016-10-25T11:37:26.645Z,99.99
2016-10-25T11:38:26.618Z,99.99
2016-10-25T11:39:26.593Z,99.99
2016-10-25T11:40:26.572Z,99.99
2016-10-25T11:41:26.539Z,99.99
2016-10-25T11:42:26.515Z,99.99
2016-10-25T11:43:26.493Z,99.99
2016-10-25T11:44:26.463Z,99.99
2016-10-25T11:45:26.440Z,99.89
2016-10-25T11:46:26.414Z,99.8
2016-10-25T11:47:26.388Z,99.7
2016-10-25T11:48:26.366Z,99.99
2016-10-25T11:49:26.337Z,99.99
2016-10-25T11:50:26.313Z,99.99
2016-10-25T11:51:26.289Z,99.99
2016-10-25T11:52:26.262Z,99.99
2016-10-25T11:53:26.236Z,99.99
2016-10-25T11:54:26.209Z,99.41
2016-10-25T11:55:26.185Z,99.6
2016-10-25T11:56:26.162Z,99.89
2016-10-25T11:57:26.134Z,99.7
2016-10-25T11:58:26.109Z,99.99
2016-10-25T11:59:26.092Z,99.99
2016-10-25T12:00:26.062Z,99.99
2016-10-25T12:01:26.037Z,99.99
2016-10-25T12:02:26.008Z,99.99
2016-10-25T12:03:25.985Z,99.99
2016-10-25T12:04:25.962Z,99.99
2016-10-25T12:05:25.935Z,99.41
2016-10-25T12:06:25.911Z,99.7
2016-10-25T12:07:25.883Z,99.6
2016-10-25T12:08:25.858Z,99.8
2016-10-25T12:09:25.836Z,99.89
2016-10-25T12:10:25.811Z,99.7
2016-10-25T12:11:25.786Z,99.41
2016-10-25T12:12:25.759Z,99.89
2016-10-25T12:13:25.761Z,99.8
2016-10-25T12:14:25.709Z,99.99
2016-10-25T12:15:25.684Z,99.89
2016-10-25T12:16:25.661Z,99.6
2016-10-25T12:17:25.632Z,99.8
2016-10-25T12:18:25.611Z,99.51
2016-10-25T12:19:25.585Z,99.6
2016-10-25T12:20:25.558Z,99.89
2016-10-25T12:21:25.537Z,99.85
2016-10-25T12:22:25.507Z,99.66
2016-10-25T12:23:25.485Z,99.6
2016-10-25T12:24:25.456Z,99.7
2016-10-25T12:25:25.434Z,99.95
2016-10-25T12:26:25.410Z,99.7
2016-10-25T12:27:25.384Z,99.95
2016-10-25T12:28:25.358Z,99.66
2016-10-25T12:29:25.336Z,99.46
2016-10-25T12:30:25.310Z,99.46
2016-10-25T12:31:25.285Z,99.46
2016-10-25T12:32:25.262Z,99.46
2016-10-25T12:33:25.234Z,99.46
2016-10-25T12:34:25.211Z,99.56
2016-10-25T12:35:25.189Z,99.85
2016-10-25T12:36:25.161Z,99.37
2016-10-25T12:37:25.143Z,99.27
2016-10-25T12:38:25.120Z,99.46
2016-10-25T12:39:25.087Z,99.18
2016-10-25T12:40:25.064Z,99.46
2016-10-25T12:41:25.039Z,99.46
2016-10-25T12:42:25.013Z,99.46
2016-10-25T12:43:24.989Z,99.46
2016-10-25T12:44:24.966Z,99.66
2016-10-25T12:45:24.945Z,99.37
2016-10-25T12:46:24.917Z,99.46
2016-10-25T12:47:24.891Z,99.08
2016-10-25T12:48:24.865Z,98.99
2016-10-25T12:49:24.876Z,98.9
2016-10-25T12:50:24.817Z,99.66
2016-10-25T12:51:24.794Z,99.75
2016-10-25T12:52:24.769Z,99.66
2016-10-25T12:53:24.748Z,98.9